createdAt,value
2023-04-06T00:00:45.171Z,0.20
2023-04-06T00:03:17.432Z,0.00
2023-04-06T00:05:50.086Z,0.10
2023-04-06T00:08:22.614Z,0.10
2023-04-06T00:10:56.992Z,0.10
2023-04-06T00:13:29.106Z,0.00
2023-04-06T00:16:01.747Z,-0.10
2023-04-06T00:18:33.864Z,-0.10
2023-04-06T00:21:06.336Z,-0.10
2023-04-06T00:23:38.427Z,-0.10
2023-04-06T00:26:11.791Z,-0.10
2023-04-06T00:28:46.037Z,-0.10
2023-04-06T00:31:19.137Z,-0.10
2023-04-06T00:33:51.229Z,0.00
2023-04-06T00:36:23.558Z,-0.10
2023-04-06T00:38:56.466Z,-0.10
2023-04-06T00:41:28.600Z,-0.10
2023-04-06T00:44:00.807Z,-0.10
2023-04-06T00:46:32.996Z,-0.20
2023-04-06T00:49:05.126Z,-0.20
2023-04-06T00:51:37.490Z,-0.20
2023-04-06T00:54:09.551Z,-0.20
2023-04-06T00:56:43.847Z,-0.20
2023-04-06T00:59:16.159Z,-0.30
2023-04-06T01:01:49.429Z,-0.20
2023-04-06T01:04:36.034Z,-0.30
2023-04-06T01:07:09.653Z,-0.20
2023-04-06T01:09:49.306Z,-0.40
2023-04-06T01:12:27.482Z,-0.50
2023-04-06T01:15:00.925Z,-0.50
2023-04-06T01:17:35.260Z,-0.40
2023-04-06T01:20:14.979Z,-0.40
2023-04-06T01:22:47.689Z,-0.50
2023-04-06T01:25:20.593Z,-0.60
2023-04-06T01:28:12.945Z,-0.60
2023-04-06T01:31:01.982Z,-0.40
2023-04-06T01:33:46.644Z,-0.40
2023-04-06T01:36:22.259Z,-0.40
2023-04-06T01:39:01.495Z,-0.40
2023-04-06T01:41:39.940Z,-0.50
2023-04-06T01:44:12.034Z,-0.50
2023-04-06T01:46:45.119Z,-0.50
2023-04-06T01:49:22.339Z,-0.40
2023-04-06T01:51:59.162Z,-0.40
2023-04-06T01:54:31.395Z,-0.40
2023-04-06T01:57:19.745Z,-0.30
2023-04-06T01:59:56.560Z,-0.50
2023-04-06T02:02:45.697Z,-0.60
2023-04-06T02:05:26.112Z,-0.70
2023-04-06T02:07:59.611Z,-0.70
2023-04-06T02:10:37.790Z,-0.70
2023-04-06T02:13:18.718Z,-0.60
2023-04-06T02:15:54.421Z,-0.40
2023-04-06T02:18:26.591Z,-0.40
2023-04-06T02:21:01.868Z,-0.40
2023-04-06T02:23:34.165Z,-0.40
2023-04-06T02:26:06.446Z,-0.40
2023-04-06T02:28:38.509Z,-0.50
2023-04-06T02:31:10.865Z,-0.60
2023-04-06T02:33:43.245Z,-0.60
2023-04-06T02:36:16.565Z,-0.50
2023-04-06T02:38:48.619Z,-0.50
2023-04-06T02:41:20.836Z,-0.50
2023-04-06T02:43:53.109Z,-0.60
2023-04-06T02:46:36.674Z,-0.70
2023-04-06T02:49:09.741Z,-0.60
2023-04-06T02:51:42.282Z,-0.50
2023-04-06T02:54:24.209Z,-0.50
2023-04-06T02:56:56.335Z,-0.60
2023-04-06T02:59:33.449Z,-0.80
2023-04-06T03:02:15.954Z,-0.80
2023-04-06T03:04:48.929Z,-0.70
2023-04-06T03:07:33.014Z,-0.70
2023-04-06T03:10:05.745Z,-0.70
2023-04-06T03:12:38.575Z,-0.70
2023-04-06T03:15:36.896Z,-0.70
2023-04-06T03:18:26.097Z,-0.70
2023-04-06T03:21:01.379Z,-0.80
2023-04-06T03:23:52.244Z,-0.80
2023-04-06T03:26:24.498Z,-0.80
2023-04-06T03:28:57.780Z,-0.80
2023-04-06T03:31:34.526Z,-0.80
2023-04-06T03:34:13.741Z,-0.80
2023-04-06T03:36:53.979Z,-0.80
2023-04-06T03:39:37.417Z,-0.90
2023-04-06T03:42:09.902Z,-1.00
2023-04-06T03:44:47.129Z,-1.10
2023-04-06T03:47:20.152Z,-1.20
2023-04-06T03:49:52.302Z,-1.20
2023-04-06T03:52:24.402Z,-1.30
2023-04-06T03:54:57.798Z,-1.30
2023-04-06T03:57:29.896Z,-1.20
2023-04-06T04:00:04.183Z,-1.10
2023-04-06T04:02:44.887Z,-1.10
2023-04-06T04:05:17.218Z,-1.10
2023-04-06T04:07:49.482Z,-1.30
2023-04-06T04:10:21.903Z,-1.30
2023-04-06T04:12:53.936Z,-1.40
2023-04-06T04:15:26.119Z,-1.40
2023-04-06T04:17:58.242Z,-1.40
2023-04-06T04:20:30.414Z,-1.40
2023-04-06T04:23:02.420Z,-1.30
2023-04-06T04:25:37.768Z,-1.40
2023-04-06T04:28:10.009Z,-1.30
2023-04-06T04:30:43.296Z,-1.30
2023-04-06T04:33:17.214Z,-1.20
2023-04-06T04:35:50.486Z,-1.20
2023-04-06T04:38:26.174Z,-1.30
2023-04-06T04:41:01.060Z,-1.30
2023-04-06T04:43:33.585Z,-1.20
2023-04-06T04:46:08.157Z,-1.20
2023-04-06T04:48:46.281Z,-1.20
2023-04-06T04:51:18.736Z,-1.40
2023-04-06T04:54:00.503Z,-1.20
2023-04-06T04:56:36.248Z,-1.10
2023-04-06T04:59:31.302Z,-1.10
2023-04-06T05:02:13.287Z,-1.20
2023-04-06T05:04:54.487Z,-1.20
2023-04-06T05:07:30.093Z,-1.20
2023-04-06T05:10:05.577Z,-1.20
2023-04-06T05:12:43.653Z,-1.20
2023-04-06T05:15:16.931Z,-1.20
2023-04-06T05:17:49.563Z,-1.20
2023-04-06T05:20:26.523Z,-1.20
2023-04-06T05:22:58.918Z,-1.10
2023-04-06T05:25:31.482Z,-1.00
2023-04-06T05:28:10.777Z,-1.00
2023-04-06T05:30:45.601Z,-1.00
2023-04-06T05:33:18.746Z,-0.80
2023-04-06T05:36:03.012Z,-0.70
2023-04-06T05:38:35.463Z,-0.60
2023-04-06T05:41:16.842Z,-0.60
2023-04-06T05:43:48.965Z,-0.50
2023-04-06T05:46:21.379Z,-0.50
2023-04-06T05:48:54.141Z,-0.40
2023-04-06T05:51:30.444Z,-0.30
2023-04-06T05:54:02.708Z,-0.30
2023-04-06T05:56:35.505Z,-0.20
2023-04-06T05:59:08.870Z,-0.10
2023-04-06T06:01:41.431Z,0.00
2023-04-06T06:04:13.877Z,0.20
2023-04-06T06:06:46.699Z,0.20
2023-04-06T06:09:24.493Z,0.30
2023-04-06T06:12:06.372Z,0.50
2023-04-06T06:14:38.514Z,0.60
2023-04-06T06:17:10.676Z,0.70
2023-04-06T06:19:42.939Z,0.80
2023-04-06T06:22:15.169Z,1.00
2023-04-06T06:24:51.645Z,1.10
2023-04-06T06:27:25.933Z,1.50
2023-04-06T06:29:58.313Z,1.70
2023-04-06T06:32:31.220Z,1.80
2023-04-06T06:35:04.919Z,2.00
2023-04-06T06:37:37.258Z,2.10
2023-04-06T06:40:11.484Z,2.10
2023-04-06T06:42:44.251Z,2.10
2023-04-06T06:45:42.934Z,2.20
2023-04-06T06:48:15.167Z,2.30
2023-04-06T06:50:49.488Z,2.40
2023-04-06T06:53:21.791Z,2.50
2023-04-06T06:55:54.339Z,2.70
2023-04-06T06:58:26.626Z,2.80
2023-04-06T07:01:01.046Z,2.90
2023-04-06T07:03:35.521Z,3.10
2023-04-06T07:06:07.788Z,3.40
2023-04-06T07:08:39.944Z,3.50
2023-04-06T07:11:11.990Z,3.50
2023-04-06T07:13:44.412Z,3.50
2023-04-06T07:16:16.772Z,3.60
2023-04-06T07:18:49.548Z,3.70
2023-04-06T07:21:22.291Z,3.90
2023-04-06T07:23:54.444Z,4.10
2023-04-06T07:26:26.856Z,4.50
2023-04-06T07:28:59.396Z,4.70
2023-04-06T07:31:31.740Z,5.00
2023-04-06T07:34:04.456Z,5.10
2023-04-06T07:36:36.627Z,5.20
2023-04-06T07:39:08.882Z,5.20
2023-04-06T07:41:42.119Z,5.20
2023-04-06T07:44:14.559Z,5.50
2023-04-06T07:46:46.673Z,5.60
2023-04-06T07:49:19.421Z,5.70
2023-04-06T07:51:51.709Z,5.90
2023-04-06T07:54:23.983Z,6.10
2023-04-06T07:56:56.008Z,6.20
2023-04-06T07:59:28.741Z,6.30
2023-04-06T08:02:00.894Z,6.40
2023-04-06T08:04:32.979Z,6.30
2023-04-06T08:07:05.135Z,6.30
2023-04-06T08:09:37.404Z,6.30
2023-04-06T08:12:09.867Z,6.40
2023-04-06T08:14:42.187Z,6.50
2023-04-06T08:17:14.443Z,6.50
2023-04-06T08:19:46.668Z,6.70
2023-04-06T08:22:18.775Z,6.70
2023-04-06T08:24:51.523Z,6.80
2023-04-06T08:27:23.586Z,7.00
2023-04-06T08:29:56.076Z,7.00
2023-04-06T08:32:28.252Z,7.20
2023-04-06T08:35:00.754Z,7.20
2023-04-06T08:37:32.857Z,7.30
2023-04-06T08:40:05.601Z,7.20
2023-04-06T08:42:43.969Z,7.10
2023-04-06T08:45:17.758Z,7.20
2023-04-06T08:47:52.524Z,7.30
2023-04-06T08:50:26.591Z,7.20
2023-04-06T08:52:58.824Z,7.10
2023-04-06T08:55:31.329Z,7.20
2023-04-06T08:58:04.501Z,7.40
2023-04-06T09:00:40.553Z,7.50
2023-04-06T09:03:14.141Z,7.40
2023-04-06T09:05:47.862Z,7.40
2023-04-06T09:08:20.960Z,7.40
2023-04-06T09:10:54.133Z,7.40
2023-04-06T09:13:26.490Z,7.30
2023-04-06T09:16:07.413Z,7.50
2023-04-06T09:18:39.466Z,7.60
2023-04-06T09:21:12.078Z,7.60
2023-04-06T09:23:44.343Z,7.80
2023-04-06T09:26:18.764Z,7.80
2023-04-06T09:28:55.527Z,7.80
2023-04-06T09:31:29.590Z,7.80
2023-04-06T09:34:03.154Z,7.90
2023-04-06T09:36:39.550Z,7.90
2023-04-06T09:39:11.626Z,7.80
2023-04-06T09:41:51.801Z,8.00
2023-04-06T09:44:25.227Z,8.00
2023-04-06T09:47:00.816Z,8.10
2023-04-06T09:49:34.837Z,8.30
2023-04-06T09:52:09.996Z,8.40
2023-04-06T09:54:43.906Z,8.30
2023-04-06T09:57:29.859Z,8.40
2023-04-06T10:00:10.957Z,8.60
2023-04-06T10:02:57.079Z,8.60
2023-04-06T10:05:37.063Z,8.70
2023-04-06T10:08:13.504Z,8.90
2023-04-06T10:10:46.669Z,9.00
2023-04-06T10:13:20.571Z,9.10
2023-04-06T10:15:53.679Z,8.90
2023-04-06T10:18:26.349Z,8.90
2023-04-06T10:21:12.586Z,8.90
2023-04-06T10:23:55.652Z,8.90
2023-04-06T10:26:27.825Z,9.10
2023-04-06T10:29:05.142Z,9.20
2023-04-06T10:31:43.278Z,9.20
2023-04-06T10:34:16.441Z,9.30
2023-04-06T10:36:48.570Z,9.10
2023-04-06T10:39:27.150Z,9.40
2023-04-06T10:42:07.796Z,9.60
2023-04-06T10:44:44.791Z,9.80
2023-04-06T10:47:21.792Z,10.10
2023-04-06T10:49:54.043Z,10.40
2023-04-06T10:52:26.298Z,10.60
2023-04-06T10:54:58.857Z,10.50
2023-04-06T10:57:33.178Z,10.60
2023-04-06T11:00:07.027Z,10.50
2023-04-06T11:02:39.334Z,10.50
2023-04-06T11:05:13.269Z,10.60
2023-04-06T11:07:45.791Z,10.70
2023-04-06T11:10:23.620Z,10.70
2023-04-06T11:12:56.799Z,10.80
2023-04-06T11:15:36.843Z,10.70
2023-04-06T11:18:10.346Z,10.70
2023-04-06T11:20:49.402Z,10.80
2023-04-06T11:23:28.743Z,10.90
2023-04-06T11:26:01.397Z,11.30
2023-04-06T11:28:33.657Z,11.50
2023-04-06T11:31:06.877Z,11.50
2023-04-06T11:33:39.882Z,11.60
2023-04-06T11:36:13.762Z,11.50
2023-04-06T11:38:47.125Z,11.70
2023-04-06T11:41:19.488Z,11.90
2023-04-06T11:43:51.538Z,12.30
2023-04-06T11:46:23.632Z,12.90
2023-04-06T11:49:00.319Z,13.10
2023-04-06T11:51:37.175Z,12.80
2023-04-06T11:54:09.319Z,12.30
2023-04-06T11:56:41.871Z,12.20
2023-04-06T11:59:13.897Z,12.30
2023-04-06T12:01:46.676Z,13.00
2023-04-06T12:04:19.015Z,13.30
2023-04-06T12:06:51.353Z,13.90
2023-04-06T12:09:23.826Z,14.30
2023-04-06T12:11:57.056Z,14.50
2023-04-06T12:14:29.158Z,14.30
2023-04-06T12:17:01.667Z,14.00
2023-04-06T12:19:33.826Z,13.80
2023-04-06T12:22:06.438Z,13.70
2023-04-06T12:24:38.504Z,14.20
2023-04-06T12:27:12.664Z,14.10
2023-04-06T12:29:44.738Z,14.10
2023-04-06T12:32:16.835Z,13.70
2023-04-06T12:34:49.090Z,13.10
2023-04-06T12:37:21.743Z,13.20
2023-04-06T12:39:54.043Z,13.40
2023-04-06T12:42:26.153Z,13.50
2023-04-06T12:44:58.299Z,13.50
2023-04-06T12:47:30.552Z,14.00
2023-04-06T12:50:03.147Z,14.70
2023-04-06T12:52:36.734Z,15.30
2023-04-06T12:55:09.520Z,15.90
2023-04-06T12:57:41.851Z,15.80
2023-04-06T13:00:16.117Z,15.90
2023-04-06T13:02:48.566Z,15.70
2023-04-06T13:05:20.713Z,16.00
2023-04-06T13:07:53.013Z,16.40
2023-04-06T13:10:25.049Z,15.80
2023-04-06T13:12:57.103Z,15.00
2023-04-06T13:15:29.224Z,14.60
2023-04-06T13:18:01.679Z,14.60
2023-04-06T13:20:33.754Z,14.90
2023-04-06T13:23:06.160Z,15.50
2023-04-06T13:25:38.404Z,15.90
2023-04-06T13:28:11.271Z,16.10
2023-04-06T13:30:43.796Z,16.10
2023-04-06T13:33:16.198Z,16.50
2023-04-06T13:35:48.532Z,16.70
2023-04-06T13:38:20.743Z,16.30
2023-04-06T13:40:53.068Z,17.10
2023-04-06T13:43:27.394Z,16.90
2023-04-06T13:46:01.923Z,16.60
2023-04-06T13:48:34.001Z,16.40
2023-04-06T13:51:10.979Z,16.60
2023-04-06T13:53:43.337Z,16.00
2023-04-06T13:56:15.745Z,15.60
2023-04-06T13:58:47.836Z,15.30
2023-04-06T14:01:19.988Z,14.80
2023-04-06T14:03:52.572Z,14.70
2023-04-06T14:06:31.005Z,15.20
2023-04-06T14:09:03.780Z,15.80
2023-04-06T14:11:36.437Z,16.10
2023-04-06T14:14:08.603Z,16.20
2023-04-06T14:16:49.749Z,15.70
2023-04-06T14:19:24.824Z,15.00
2023-04-06T14:21:57.519Z,14.80
2023-04-06T14:24:29.798Z,14.90
2023-04-06T14:27:02.278Z,14.30
2023-04-06T14:29:34.908Z,13.90
2023-04-06T14:32:06.990Z,13.90
2023-04-06T14:34:39.484Z,14.00
2023-04-06T14:37:13.240Z,14.00
2023-04-06T14:39:45.632Z,14.30
2023-04-06T14:42:18.341Z,15.00
2023-04-06T14:44:51.737Z,15.10
2023-04-06T14:47:24.147Z,15.00
2023-04-06T14:49:56.231Z,14.80
2023-04-06T14:52:30.000Z,14.60
2023-04-06T14:55:03.477Z,14.30
2023-04-06T14:57:35.610Z,14.30
2023-04-06T15:00:09.160Z,14.40
2023-04-06T15:02:44.371Z,14.30
2023-04-06T15:05:16.830Z,14.10
2023-04-06T15:07:48.844Z,13.70
2023-04-06T15:10:21.359Z,14.00
2023-04-06T15:12:53.424Z,14.00
2023-04-06T15:15:25.912Z,14.10
2023-04-06T15:17:58.471Z,14.10
2023-04-06T15:20:31.889Z,13.40
2023-04-06T15:23:04.429Z,13.30
2023-04-06T15:25:36.512Z,13.20
2023-04-06T15:28:09.130Z,13.10
2023-04-06T15:30:41.391Z,12.80
2023-04-06T15:33:13.668Z,12.60
2023-04-06T15:35:47.716Z,12.80
2023-04-06T15:38:19.856Z,12.80
2023-04-06T15:40:52.087Z,12.70
2023-04-06T15:43:24.147Z,12.60
2023-04-06T15:45:57.429Z,12.60
2023-04-06T15:48:32.062Z,12.40
2023-04-06T15:51:04.277Z,12.30
2023-04-06T15:53:37.525Z,12.30
2023-04-06T15:56:09.880Z,12.30
2023-04-06T15:58:42.269Z,12.20
2023-04-06T16:01:19.067Z,12.20
2023-04-06T16:03:51.492Z,12.00
2023-04-06T16:06:23.610Z,11.90
2023-04-06T16:08:55.621Z,11.90
2023-04-06T16:11:28.153Z,12.00
2023-04-06T16:14:00.828Z,12.30
2023-04-06T16:16:33.098Z,12.50
2023-04-06T16:19:05.205Z,12.60
2023-04-06T16:21:37.240Z,12.50
2023-04-06T16:24:09.490Z,12.60
2023-04-06T16:26:42.208Z,12.50
2023-04-06T16:29:14.842Z,12.40
2023-04-06T16:31:49.781Z,12.10
2023-04-06T16:34:21.987Z,12.00
2023-04-06T16:36:57.103Z,11.90
2023-04-06T16:39:29.222Z,12.00
2023-04-06T16:42:02.975Z,11.90
2023-04-06T16:44:35.594Z,11.80
2023-04-06T16:47:07.877Z,11.70
2023-04-06T16:49:40.072Z,11.60
2023-04-06T16:52:12.707Z,11.40
2023-04-06T16:54:44.742Z,11.50
2023-04-06T16:57:17.077Z,11.30
2023-04-06T16:59:49.354Z,11.30
2023-04-06T17:02:21.450Z,11.20
2023-04-06T17:04:53.870Z,11.20
2023-04-06T17:07:31.745Z,11.10
2023-04-06T17:10:04.186Z,11.20
2023-04-06T17:12:36.440Z,11.00
2023-04-06T17:15:09.312Z,10.90
2023-04-06T17:17:41.879Z,10.80
2023-04-06T17:20:14.010Z,10.70
2023-04-06T17:22:47.256Z,10.60
2023-04-06T17:25:19.666Z,10.50
2023-04-06T17:27:52.330Z,10.30
2023-04-06T17:30:24.464Z,10.20
2023-04-06T17:32:57.144Z,10.10
2023-04-06T17:35:29.261Z,9.90
2023-04-06T17:38:02.756Z,9.80
2023-04-06T17:40:37.796Z,9.70
2023-04-06T17:43:09.982Z,9.60
2023-04-06T17:45:42.149Z,9.40
2023-04-06T17:48:14.186Z,9.20
2023-04-06T17:50:46.597Z,9.10
2023-04-06T17:53:20.504Z,9.00
2023-04-06T17:55:52.996Z,8.90
2023-04-06T17:58:25.097Z,8.70
2023-04-06T18:00:57.284Z,8.60
2023-04-06T18:03:29.771Z,8.40
2023-04-06T18:06:16.039Z,8.30
2023-04-06T18:08:48.567Z,8.20
2023-04-06T18:11:22.036Z,8.10
2023-04-06T18:13:54.293Z,8.00
2023-04-06T18:16:28.639Z,7.90
2023-04-06T18:19:02.209Z,7.70
2023-04-06T18:21:35.241Z,7.70
2023-04-06T18:24:08.095Z,7.60
2023-04-06T18:26:42.313Z,7.50
2023-04-06T18:29:14.340Z,7.30
2023-04-06T18:31:50.812Z,7.20
2023-04-06T18:34:23.840Z,7.10
2023-04-06T18:36:56.348Z,7.10
2023-04-06T18:39:28.870Z,7.00
2023-04-06T18:42:03.149Z,6.90
2023-04-06T18:44:35.615Z,6.80
2023-04-06T18:47:07.745Z,6.70
2023-04-06T18:49:39.925Z,6.60
2023-04-06T18:52:12.336Z,6.50
2023-04-06T18:54:44.335Z,6.50
2023-04-06T18:57:16.727Z,6.40
2023-04-06T18:59:48.723Z,6.30
2023-04-06T19:02:21.368Z,6.10
2023-04-06T19:04:54.008Z,5.90
2023-04-06T19:07:27.716Z,5.90
2023-04-06T19:09:59.916Z,6.00
2023-04-06T19:12:38.161Z,5.90
2023-04-06T19:15:12.402Z,5.80
2023-04-06T19:17:44.927Z,5.70
2023-04-06T19:20:17.464Z,5.70
2023-04-06T19:25:25.520Z,5.60
2023-04-06T19:27:58.135Z,5.50
2023-04-06T19:30:30.764Z,5.50
2023-04-06T19:33:03.971Z,5.40
2023-04-06T19:35:36.195Z,5.40
2023-04-06T19:38:08.552Z,5.30
2023-04-06T19:40:41.144Z,5.30
2023-04-06T19:43:13.927Z,5.30
2023-04-06T19:45:49.628Z,5.30
2023-04-06T19:48:21.962Z,5.20
2023-04-06T19:50:55.024Z,5.10
2023-04-06T19:53:27.433Z,5.10
2023-04-06T19:55:59.503Z,5.10
2023-04-06T19:58:32.166Z,5.10
2023-04-06T20:01:05.274Z,5.00
2023-04-06T20:03:37.679Z,4.80
2023-04-06T20:06:09.978Z,4.70
2023-04-06T20:08:42.617Z,4.70
2023-04-06T20:11:14.954Z,4.70
2023-04-06T20:13:47.130Z,4.60
2023-04-06T20:16:19.319Z,4.60
2023-04-06T20:18:51.519Z,4.60
2023-04-06T20:21:24.265Z,4.50
2023-04-06T20:23:57.004Z,4.50
2023-04-06T20:26:29.359Z,4.50
2023-04-06T20:29:01.940Z,4.40
2023-04-06T20:31:34.169Z,4.50
2023-04-06T20:34:06.483Z,4.40
2023-04-06T20:36:40.217Z,4.40
2023-04-06T20:39:13.232Z,4.50
2023-04-06T20:41:45.585Z,4.50
2023-04-06T20:44:19.097Z,4.50
2023-04-06T20:46:51.310Z,4.40
2023-04-06T20:49:24.221Z,4.50
2023-04-06T20:51:56.648Z,4.40
2023-04-06T20:54:29.849Z,4.50
2023-04-06T20:57:02.077Z,4.60
2023-04-06T20:59:34.324Z,4.60
2023-04-06T21:02:06.607Z,4.70
2023-04-06T21:04:39.376Z,4.50
2023-04-06T21:07:11.664Z,4.60
2023-04-06T21:09:43.772Z,4.70
2023-04-06T21:12:16.214Z,4.60
2023-04-06T21:14:48.349Z,4.60
2023-04-06T21:17:20.693Z,4.60
2023-04-06T21:19:53.430Z,4.50
2023-04-06T21:22:25.793Z,4.50
2023-04-06T21:24:57.871Z,4.50
2023-04-06T21:27:30.314Z,4.40
2023-04-06T21:30:02.411Z,4.50
2023-04-06T21:32:37.031Z,4.50
2023-04-06T21:35:10.097Z,4.50
2023-04-06T21:37:42.655Z,4.50
2023-04-06T21:40:15.179Z,4.50
2023-04-06T21:42:47.464Z,4.40
2023-04-06T21:45:20.805Z,4.40
2023-04-06T21:47:53.228Z,4.30
2023-04-06T21:50:25.469Z,4.40
2023-04-06T21:52:57.770Z,4.50
2023-04-06T21:55:29.935Z,4.50
2023-04-06T21:58:02.189Z,4.50
2023-04-06T22:00:34.348Z,4.40
2023-04-06T22:03:06.971Z,4.50
2023-04-06T22:05:39.837Z,4.30
2023-04-06T22:08:17.878Z,4.50
2023-04-06T22:10:58.388Z,4.50
2023-04-06T22:13:30.467Z,4.40
2023-04-06T22:16:02.663Z,4.30
2023-04-06T22:18:38.109Z,4.30
2023-04-06T22:21:11.268Z,4.30
2023-04-06T22:23:43.429Z,4.40
2023-04-06T22:26:15.593Z,4.40
2023-04-06T22:28:47.669Z,4.30
2023-04-06T22:31:19.871Z,4.30
2023-04-06T22:33:51.907Z,4.30
2023-04-06T22:36:24.631Z,4.30
2023-04-06T22:38:57.253Z,4.30
2023-04-06T22:41:30.195Z,4.20
2023-04-06T22:44:02.388Z,4.20
2023-04-06T22:46:35.079Z,4.20
2023-04-06T22:49:07.064Z,4.20
2023-04-06T22:51:42.174Z,4.10
2023-04-06T22:54:14.645Z,4.20
2023-04-06T22:56:46.941Z,4.30
2023-04-06T22:59:19.241Z,4.30
2023-04-06T23:01:51.308Z,4.20
2023-04-06T23:04:23.462Z,4.20
2023-04-06T23:06:55.583Z,4.30
2023-04-06T23:09:27.826Z,4.40
2023-04-06T23:11:59.848Z,4.40
2023-04-06T23:14:32.657Z,4.40
2023-04-06T23:17:05.314Z,4.40
2023-04-06T23:19:37.562Z,4.20
2023-04-06T23:22:09.626Z,4.20
2023-04-06T23:24:42.152Z,4.20
2023-04-06T23:27:14.238Z,4.10
2023-04-06T23:29:46.560Z,4.10
2023-04-06T23:32:19.225Z,4.10
2023-04-06T23:34:51.574Z,4.20
2023-04-06T23:37:23.679Z,4.20
2023-04-06T23:39:55.840Z,4.20
2023-04-06T23:42:28.549Z,4.10
2023-04-06T23:45:04.504Z,4.10
2023-04-06T23:47:36.571Z,4.00
2023-04-06T23:50:09.201Z,4.00
2023-04-06T23:52:41.934Z,4.00
2023-04-06T23:55:13.992Z,4.00
2023-04-06T23:57:46.128Z,3.90
